createdAt,value
2022-08-18T00:01:16.484Z,97796.53
2022-08-18T00:06:19.866Z,97778.22
2022-08-18T00:11:21.921Z,97778.75
2022-08-18T00:16:23.883Z,97761.78
2022-08-18T00:21:26.149Z,97775.31
2022-08-18T00:26:30.425Z,97781.41
2022-08-18T00:31:34.455Z,97783.00
2022-08-18T00:36:36.404Z,97788.03
2022-08-18T00:41:38.189Z,97788.84
2022-08-18T00:46:39.955Z,97786.19
2022-08-18T00:51:48.347Z,97786.16
2022-08-18T00:56:55.582Z,97794.66
2022-08-18T01:02:02.776Z,97787.75
2022-08-18T01:07:22.229Z,97789.88
2022-08-18T01:12:39.446Z,97787.75
2022-08-18T01:18:05.602Z,97781.13
2022-08-18T01:23:15.497Z,97785.63
2022-08-18T01:28:20.987Z,97787.75
2022-08-18T01:33:22.766Z,97800.19
2022-08-18T01:38:32.518Z,97801.53
2022-08-18T01:43:36.239Z,97798.88
2022-08-18T01:48:39.689Z,97798.06
2022-08-18T01:53:41.965Z,97794.88
2022-08-18T01:58:44.706Z,97792.50
2022-08-18T02:03:53.005Z,97785.06
2022-08-18T02:08:54.756Z,97789.06
2022-08-18T02:13:56.655Z,97784.56
2022-08-18T02:18:58.513Z,97795.16
2022-08-18T02:24:00.301Z,97784.56
2022-08-18T02:29:02.085Z,97782.16
2022-08-18T02:34:03.923Z,97775.53
2022-08-18T02:39:05.708Z,97787.19
2022-08-18T02:44:08.965Z,97768.09
2022-08-18T02:49:10.920Z,97761.69
2022-08-18T02:54:12.826Z,97752.41
2022-08-18T02:59:19.553Z,97742.06
2022-08-18T03:04:29.575Z,97737.28
2022-08-18T03:09:34.621Z,97757.97
2022-08-18T03:14:40.030Z,97746.28
2022-08-18T03:19:45.246Z,97759.00
2022-08-18T03:24:49.813Z,97755.03
2022-08-18T03:29:51.924Z,97756.09
2022-08-18T03:34:54.263Z,97747.88
2022-08-18T03:39:56.228Z,97745.22
2022-08-18T03:44:58.270Z,97743.38
2022-08-18T03:50:00.149Z,97742.56
2022-08-18T03:55:02.849Z,97754.75
2022-08-18T04:00:05.648Z,97751.31
2022-08-18T04:05:07.842Z,97758.47
2022-08-18T04:10:14.000Z,97767.19
2022-08-18T04:15:21.489Z,97767.44
2022-08-18T04:20:24.462Z,97766.09
2022-08-18T04:25:32.173Z,97771.66
2022-08-18T04:30:34.905Z,97770.03
2022-08-18T04:35:36.762Z,97770.56
2022-08-18T04:40:38.638Z,97768.69
2022-08-18T04:45:45.078Z,97773.47
2022-08-18T04:50:47.135Z,97775.06
2022-08-18T04:55:53.945Z,97779.31
2022-08-18T05:01:01.879Z,97778.53
2022-08-18T05:06:05.636Z,97782.25
2022-08-18T05:11:07.599Z,97785.44
2022-08-18T05:16:13.968Z,97788.13
2022-08-18T05:21:21.855Z,97794.50
2022-08-18T05:26:27.974Z,97790.25
2022-08-18T05:31:30.733Z,97790.81
2022-08-18T05:36:52.087Z,97783.13
2022-08-18T05:41:55.898Z,97791.88
2022-08-18T05:47:07.928Z,97786.13
2022-08-18T05:52:17.419Z,97783.50
2022-08-18T05:57:22.644Z,97784.59
2022-08-18T06:02:47.502Z,97794.16
2022-08-18T06:07:55.869Z,97780.88
2022-08-18T06:13:00.707Z,97782.22
2022-08-18T06:18:08.566Z,97789.63
2022-08-18T06:23:33.110Z,97790.13
2022-08-18T06:29:03.320Z,97785.56
2022-08-18T06:34:11.251Z,97779.94
2022-08-18T06:39:35.304Z,97778.53
2022-08-18T06:44:44.519Z,97771.50
2022-08-18T06:50:07.601Z,97772.75
2022-08-18T06:55:17.174Z,97780.69
2022-08-18T07:00:19.129Z,97792.91
2022-08-18T07:05:32.279Z,97784.38
2022-08-18T07:10:39.639Z,97786.22
2022-08-18T07:15:44.247Z,97791.00
2022-08-18T07:20:56.177Z,97793.09
2022-08-18T07:26:06.982Z,97801.56
2022-08-18T07:31:35.403Z,97803.41
2022-08-18T07:36:47.629Z,97798.31
2022-08-18T07:41:57.698Z,97794.59
2022-08-18T07:47:12.323Z,97797.22
2022-08-18T07:52:44.402Z,97811.78
2022-08-18T07:57:51.576Z,97820.00
2022-08-18T08:03:32.222Z,97815.75
2022-08-18T08:08:37.928Z,97812.59
2022-08-18T08:14:07.548Z,97809.31
2022-08-18T08:20:00.428Z,97809.00
2022-08-18T08:25:44.656Z,97828.28
2022-08-18T08:31:32.960Z,97824.03
2022-08-18T08:36:41.837Z,97817.59
2022-08-18T08:42:34.592Z,97813.13
2022-08-18T08:48:17.929Z,97806.06
2022-08-18T08:53:41.956Z,97808.50
2022-08-18T08:59:00.598Z,97812.53
2022-08-18T09:04:24.440Z,97804.25
2022-08-18T09:09:32.262Z,97791.31
2022-08-18T09:15:12.568Z,97788.69
2022-08-18T09:20:33.210Z,97778.38
2022-08-18T09:25:38.066Z,97776.66
2022-08-18T09:30:47.688Z,97772.41
2022-08-18T09:36:13.040Z,97771.03
2022-08-18T09:41:31.997Z,97772.91
2022-08-18T09:46:43.708Z,97762.28
2022-08-18T09:51:46.027Z,97768.78
2022-08-18T09:56:55.810Z,97758.69
2022-08-18T10:02:03.726Z,97756.59
2022-08-18T10:13:31.570Z,97751.28
2022-08-18T10:19:11.314Z,97753.34
2022-08-18T10:24:36.870Z,97768.00
2022-08-18T10:29:49.625Z,97765.13
2022-08-18T10:34:53.840Z,97768.38
2022-08-18T10:40:14.070Z,97756.41
2022-08-18T10:45:25.661Z,97756.41
2022-08-18T10:50:35.407Z,97755.31
2022-08-18T10:55:48.706Z,97754.94
2022-08-18T11:01:01.468Z,97756.09
2022-08-18T11:06:14.581Z,97754.44
2022-08-18T11:11:34.643Z,97772.81
2022-08-18T11:16:55.811Z,97771.31
2022-08-18T11:21:57.893Z,97770.38
2022-08-18T11:27:09.733Z,97770.53
2022-08-18T11:32:27.758Z,97784.03
2022-08-18T11:37:52.254Z,97781.88
2022-08-18T11:43:03.935Z,97784.78
2022-08-18T11:48:14.692Z,97801.25
2022-08-18T11:53:35.561Z,97803.53
2022-08-18T11:58:46.021Z,97806.81
2022-08-18T12:03:52.725Z,97805.88
2022-08-18T12:09:04.742Z,97805.94
2022-08-18T12:14:29.854Z,97801.38
2022-08-18T12:19:35.283Z,97802.13
2022-08-18T12:30:03.214Z,97814.31
2022-08-18T12:35:08.258Z,97807.19
2022-08-18T12:40:13.749Z,97777.06
2022-08-18T12:45:16.890Z,97774.69
2022-08-18T12:50:18.793Z,97777.56
2022-08-18T12:55:21.880Z,97785.06
2022-08-18T13:00:28.081Z,97789.81
2022-08-18T13:05:31.176Z,97778.00
2022-08-18T13:10:42.970Z,97761.28
2022-08-18T13:15:57.949Z,97753.56
2022-08-18T13:21:01.765Z,97725.25
2022-08-18T13:26:07.114Z,97708.09
2022-08-18T13:31:10.938Z,97705.31
2022-08-18T13:36:13.822Z,97704.22
2022-08-18T13:41:16.911Z,97720.28
2022-08-18T13:46:24.296Z,97722.81
2022-08-18T13:51:33.557Z,97707.56
2022-08-18T13:56:35.616Z,97703.59
2022-08-18T14:01:44.884Z,97719.53
2022-08-18T14:06:59.149Z,97726.38
2022-08-18T14:12:06.801Z,97727.34
2022-08-18T14:17:17.656Z,97717.66
2022-08-18T14:22:39.974Z,97711.72
2022-08-18T14:27:43.633Z,97698.47
2022-08-18T14:32:59.972Z,97705.59
2022-08-18T14:38:02.997Z,97702.03
2022-08-18T14:43:09.369Z,97709.16
2022-08-18T14:48:11.734Z,97705.09
2022-08-18T14:53:15.249Z,97713.91
2022-08-18T14:58:18.717Z,97712.81
2022-08-18T15:03:28.350Z,97717.88
2022-08-18T15:08:38.542Z,97716.09
2022-08-18T15:13:46.605Z,97703.41
2022-08-18T15:18:49.161Z,97701.63
2022-08-18T15:24:19.437Z,97706.19
2022-08-18T15:29:29.023Z,97704.41
2022-08-18T15:34:31.451Z,97702.63
2022-08-18T15:39:34.670Z,97693.63
2022-08-18T15:44:36.641Z,97676.78
2022-08-18T15:49:40.164Z,97658.28
2022-08-18T15:54:42.367Z,97661.66
2022-08-18T15:59:44.552Z,97659.38
2022-08-18T16:04:53.396Z,97650.72
2022-08-18T16:09:55.609Z,97647.16
2022-08-18T16:14:57.590Z,97647.25
2022-08-18T16:20:00.208Z,97636.06
2022-08-18T16:25:05.549Z,97635.88
2022-08-18T16:30:10.913Z,97636.66
2022-08-18T16:35:13.957Z,97628.16
2022-08-18T16:40:19.737Z,97619.44
2022-08-18T16:45:22.204Z,97609.94
2022-08-18T16:50:25.583Z,97610.53
2022-08-18T16:55:27.685Z,97617.84
2022-08-18T17:00:54.925Z,97633.63
2022-08-18T17:06:03.928Z,97605.25
2022-08-18T17:11:10.063Z,97596.22
2022-08-18T17:16:13.499Z,97588.31
2022-08-18T17:21:20.206Z,97586.81
2022-08-18T17:26:53.446Z,97593.81
2022-08-18T17:32:06.181Z,97590.41
2022-08-18T17:37:11.748Z,97594.75
2022-08-18T17:42:25.847Z,97588.72
2022-08-18T17:47:36.270Z,97582.38
2022-08-18T17:52:52.687Z,97601.09
2022-08-18T17:58:03.861Z,97598.03
2022-08-18T18:03:06.479Z,97609.84
2022-08-18T18:08:10.188Z,97597.38
2022-08-18T18:13:29.074Z,97593.97
2022-08-18T18:18:43.371Z,97590.56
2022-08-18T18:23:59.504Z,97594.91
2022-08-18T18:29:33.411Z,97589.91
2022-08-18T18:34:44.227Z,97582.56
2022-08-18T18:39:56.779Z,97583.72
2022-08-18T18:45:02.190Z,97589.69
2022-08-18T18:50:12.845Z,97581.25
2022-08-18T18:55:19.382Z,97578.34
2022-08-18T19:00:30.349Z,97575.47
2022-08-18T19:06:06.041Z,97579.25
2022-08-18T19:11:22.674Z,97575.34
2022-08-18T19:16:47.997Z,97584.19
2022-08-18T19:22:05.511Z,97600.22
2022-08-18T19:27:23.005Z,97596.53
2022-08-18T19:32:39.415Z,97590.69
2022-08-18T19:38:12.503Z,97575.34
2022-08-18T19:43:38.815Z,97561.59
2022-08-18T19:48:53.107Z,97545.72
2022-08-18T19:54:04.681Z,97545.84
2022-08-18T19:59:21.618Z,97553.09
2022-08-18T20:05:03.711Z,97548.66
2022-08-18T20:10:18.117Z,97539.41
2022-08-18T20:15:23.901Z,97535.22
2022-08-18T20:20:49.401Z,97535.06
2022-08-18T20:25:51.466Z,97539.91
2022-08-18T20:31:13.208Z,97529.56
2022-08-18T20:36:32.455Z,97536.22
2022-08-18T20:41:43.498Z,97533.09
2022-08-18T20:47:21.794Z,97530.47
2022-08-18T20:52:45.117Z,97533.16
2022-08-18T20:57:47.266Z,97536.91
2022-08-18T21:02:56.018Z,97530.50
2022-08-18T21:08:20.076Z,97548.09
2022-08-18T21:13:46.244Z,97533.81
2022-08-18T21:19:01.033Z,97540.78
2022-08-18T21:24:04.544Z,97547.75
2022-08-18T21:29:14.105Z,97562.63
2022-08-18T21:34:41.721Z,97567.44
2022-08-18T21:39:48.079Z,97566.16
2022-08-18T21:44:54.594Z,97553.16
2022-08-18T21:50:09.709Z,97553.44
2022-08-18T21:55:24.227Z,97539.91
2022-08-18T22:00:30.010Z,97541.25
2022-08-18T22:05:57.953Z,97543.66
2022-08-18T22:11:44.164Z,97560.66
2022-08-18T22:16:50.246Z,97586.38
2022-08-18T22:22:22.497Z,97572.88
2022-08-18T22:27:26.738Z,97581.88
2022-08-18T22:32:28.584Z,97575.00
2022-08-18T22:37:36.863Z,97576.06
2022-08-18T22:42:39.653Z,97573.69
2022-08-18T22:47:43.223Z,97574.75
2022-08-18T22:52:49.663Z,97554.84
2022-08-18T22:57:56.112Z,97549.81
2022-08-18T23:02:59.206Z,97549.56
2022-08-18T23:08:02.773Z,97544.78
2022-08-18T23:13:04.755Z,97536.84
2022-08-18T23:18:06.591Z,97528.91
2022-08-18T23:23:08.603Z,97521.22
2022-08-18T23:28:11.585Z,97501.88
2022-08-18T23:33:15.081Z,97514.09
2022-08-18T23:38:17.956Z,97517.28
2022-08-18T23:43:20.401Z,97517.56
2022-08-18T23:48:22.313Z,97525.25
2022-08-18T23:53:24.111Z,97518.59
2022-08-18T23:58:25.934Z,97521.00
